Latest Weather Observations for Marion Reef

IDQ60801

Issued at 5:35 pm EST Sunday 21 September 2014 (issued every 30 minutes, with the page automatically refreshed every 10 minutes)

About weather observations | Map of weather stations | Latest weather observations for QLD | Other Formats
Station Details ID: 200704 Name: MARION REEF Lat: -19.10 Lon: 152.39 Height: 2.0 m
Data from the previous 72 hours. | See also: Recent months for locations in Queensland
Date/Time
EST
Temp
°C
App
Temp
°C
Dew
Point
Rel
Hum
%
Delta-T
°C
Wind Press
QNH
hPa
Press
MSL
hPa
Rain
since 9 am
mm
Dir
 
Spd
km/h
Gust
km/h
Spd
kts
Gust
kts
21/05:30pm 23.2 - - - - E 44 50 24 27 1017.2 - -
21/05:00pm 23.3 - - - - E 48 56 26 30 1017.0 1017.0 -
21/04:30pm 23.4 - - - - E 50 57 27 31 1017.0 - -
21/04:00pm 23.3 - - - - E 50 59 27 32 1016.8 1016.7 -
21/03:30pm 23.1 - - - - ESE 48 56 26 30 1016.8 - -
21/03:00pm 23.4 - - - - E 50 59 27 32 1016.7 1016.6 -
21/02:30pm 23.2 - - - - ESE 48 57 26 31 1016.7 - -
21/02:00pm 23.1 - - - - ESE 46 56 25 30 1016.9 1016.8 -
21/01:30pm 23.2 - - - - ESE 44 56 24 30 1017.4 - -
21/01:00pm 23.2 - - - - ESE 43 54 23 29 1017.6 1017.5 -
21/12:30pm 23.2 - - - - ESE 43 52 23 28 1018.1 - -
21/12:00pm 23.1 - - - - ESE 44 52 24 28 1018.3 1018.2 -
21/11:30am 23.1 - - - - ESE 46 56 25 30 1018.6 - -
21/11:00am 23.3 - - - - ESE 44 52 24 28 1019.0 1018.8 -
21/10:30am 23.3 - - - - E 44 52 24 28 1019.3 - -
21/10:00am 23.2 - - - - ESE 44 52 24 28 1019.2 1019.2 -
21/09:30am 23.1 - - - - ESE 44 54 24 29 1019.4 - -
21/09:00am 23.2 - - - - ESE 46 54 25 29 1019.4 1019.3 -
21/08:30am 23.2 - - - - ESE 43 52 23 28 1019.1 - -
21/08:00am 23.0 - - - - ESE 41 46 22 25 1019.0 1019.0 -
21/07:30am 23.1 - - - - ESE 41 46 22 25 1018.8 - -
21/07:00am 23.0 - - - - ESE 41 48 22 26 1018.4 1018.3 -
21/06:30am 23.0 - - - - ESE 39 46 21 25 1017.9 - -
21/06:00am 22.9 - - - - ESE 37 44 20 24 1017.6 1017.5 -
21/05:30am 22.9 - - - - ESE 39 46 21 25 1017.1 - -
21/05:00am 22.9 - - - - ESE 41 46 22 25 1016.9 1016.8 -
21/04:30am 22.8 - - - - ESE 41 46 22 25 1016.7 - -
21/04:00am 22.9 - - - - ESE 41 46 22 25 1016.4 1016.3 -
21/03:30am 23.0 - - - - ESE 43 50 23 27 1016.2 - -
21/03:00am 22.9 - - - - ESE 39 44 21 24 1016.7 1016.6 -
21/02:30am 23.2 - - - - ESE 37 43 20 23 1016.7 - -
21/02:00am 23.2 - - - - ESE 37 43 20 23 1017.0 1016.9 -
21/01:30am 23.3 - - - - SE 37 44 20 24 1017.2 - -
21/01:00am 23.2 - - - - ESE 39 44 21 24 1017.4 1017.3 -
21/12:30am 23.6 - - - - SE 33 39 18 21 1017.8 - -
21/12:00am 23.5 - - - - ESE 35 41 19 22 1017.8 1017.7 -
 
Date/Time
EST
Temp
°C
App
Temp
°C
Dew
Point
Rel
Hum
%
Delta-T
°C
Wind Press
QNH
hPa
Press
MSL
hPa
Rain
since 9 am
mm
Dir
 
Spd
km/h
Gust
km/h
Spd
kts
Gust
kts
20/11:30pm 23.3 - - - - ESE 35 41 19 22 1017.9 - -
20/11:00pm 23.6 - - - - ESE 33 41 18 22 1017.9 1017.8 -
20/10:30pm 23.6 - - - - ESE 35 41 19 22 1017.9 - -
20/10:00pm 23.6 - - - - ESE 33 41 18 22 1017.8 1017.8 -
20/09:30pm 23.8 - - - - E 35 41 19 22 1018.0 - -
20/09:00pm 23.9 - - - - E 37 43 20 23 1018.0 1017.9 -
20/08:30pm 23.8 - - - - ESE 33 39 18 21 1017.9 - -
20/08:00pm 24.0 - - - - E 30 35 16 19 1017.8 1017.7 -
20/07:30pm 23.8 - - - - ESE 30 35 16 19 1017.4 - -
20/07:00pm 23.8 - - - - E 32 37 17 20 1016.9 1016.8 -
20/06:30pm 23.9 - - - - ESE 30 33 16 18 1016.5 - -
20/06:00pm 23.9 - - - - ESE 28 33 15 18 1016.3 1016.2 -
20/05:30pm 23.9 - - - - ESE 26 30 14 16 1015.9 - -
20/05:00pm 23.9 - - - - ESE 26 30 14 16 1015.6 1015.6 -
20/04:30pm 23.8 - - - - ESE 26 30 14 16 1015.4 - -
20/04:00pm 24.0 - - - - ESE 22 28 12 15 1015.1 1015.1 -
20/03:30pm 23.8 - - - - ESE 22 28 12 15 1014.9 - -
20/03:00pm 23.7 - - - - ESE 26 30 14 16 1014.8 1014.7 -
20/02:30pm 24.0 - - - - ESE 22 28 12 15 1015.0 - -
20/02:00pm 23.8 - - - - ESE 22 26 12 14 1015.4 1015.2 -
20/01:30pm 24.0 - - - - ESE 22 28 12 15 1015.7 - -
20/01:00pm 23.8 - - - - ESE 24 26 13 14 1015.8 1015.6 -
20/12:30pm 23.9 - - - - ESE 22 28 12 15 1016.1 - -
20/12:00pm 24.0 - - - - ESE 22 26 12 14 1016.6 1016.4 -
20/11:30am 24.0 - - - - ESE 22 26 12 14 1017.0 - -
20/11:00am 23.8 - - - - ESE 24 28 13 15 1017.0 1016.9 -
20/10:30am 23.8 - - - - E 24 26 13 14 1017.5 - -
20/10:00am 23.9 - - - - ESE 26 30 14 16 1017.7 1017.6 -
20/09:30am 23.7 - - - - ESE 24 26 13 14 1017.8 - -
20/09:00am 23.6 - - - - ESE 22 28 12 15 1017.7 1017.7 -
20/08:30am 23.5 - - - - ESE 24 28 13 15 1017.7 - -
20/08:00am 23.6 - - - - ESE 26 30 14 16 1017.5 1017.4 -
20/07:30am 23.4 - - - - ESE 26 30 14 16 1017.2 - -
20/07:00am 23.4 - - - - ESE 26 30 14 16 1016.8 1016.7 -
20/06:30am 23.6 - - - - ESE 26 28 14 15 1016.3 - -
20/06:00am 23.5 - - - - ESE 26 32 14 17 1016.1 1016.0 -
20/05:30am 23.3 - - - - ESE 26 32 14 17 1015.8 - -
20/05:00am 23.4 - - - - ESE 24 28 13 15 1015.6 1015.6 -
20/04:30am 23.4 - - - - ESE 24 28 13 15 1015.4 - -
20/04:00am 23.5 - - - - ESE 22 30 12 16 1015.2 1015.1 -
20/03:30am 23.3 - - - - ESE 22 26 12 14 1015.0 - -
20/03:00am 23.5 - - - - ESE 22 28 12 15 1015.2 1015.0 -
20/02:30am 23.5 - - - - ESE 20 26 11 14 1015.5 - -
20/02:00am 23.2 - - - - ESE 20 26 11 14 1015.9 1015.8 -
20/01:30am 23.4 - - - - ESE 20 24 11 13 1016.3 - -
20/01:00am 23.7 - - - - ESE 19 26 10 14 1016.6 1016.4 -
20/12:30am 23.4 - - - - ESE 20 24 11 13 1017.2 - -
20/12:00am 23.5 - - - - E 22 26 12 14 1017.7 1017.5 -
 
Date/Time
EST
Temp
°C
App
Temp
°C
Dew
Point
Rel
Hum
%
Delta-T
°C
Wind Press
QNH
hPa
Press
MSL
hPa
Rain
since 9 am
mm
Dir
 
Spd
km/h
Gust
km/h
Spd
kts
Gust
kts
19/11:30pm 23.6 - - - - E 24 26 13 14 1018.0 - -
19/11:00pm 23.6 - - - - E 24 28 13 15 1018.3 1018.2 -
19/10:30pm 23.6 - - - - E 22 26 12 14 1018.5 - -
19/10:00pm 23.7 - - - - E 24 28 13 15 1018.5 1018.4 -
19/09:30pm 23.7 - - - - E 24 28 13 15 1018.5 - -
19/09:00pm 23.8 - - - - E 24 26 13 14 1018.5 1018.3 -
19/08:30pm 23.7 - - - - ESE 26 30 14 16 1018.3 - -
19/08:00pm 23.6 - - - - ESE 26 30 14 16 1018.2 1018.1 -
19/07:30pm 23.7 - - - - ESE 26 32 14 17 1017.8 - -
19/07:00pm 23.5 - - - - ESE 28 32 15 17 1017.2 1017.2 -
19/06:30pm 23.6 - - - - ESE 28 33 15 18 1016.7 - -
19/06:00pm 23.5 - - - - ESE 28 33 15 18 1016.4 1016.3 -
19/05:30pm 23.5 - - - - ESE 28 33 15 18 1016.2 - -
19/05:00pm 23.6 - - - - ESE 28 32 15 17 1015.8 1015.7 -
19/04:30pm 23.4 - - - - SE 28 32 15 17 1015.6 - -
19/04:00pm 23.4 - - - - SE 28 32 15 17 1015.4 1015.3 -
19/03:30pm 23.3 - - - - SE 28 35 15 19 1015.3 - -
19/03:00pm 23.4 - - - - SE 26 32 14 17 1015.2 1015.1 -
19/02:30pm 23.4 - - - - SE 26 32 14 17 1015.4 - -
19/02:00pm 23.6 - - - - SE 26 30 14 16 1015.7 1015.6 -
19/01:30pm 23.7 - - - - SE 26 30 14 16 1015.7 - -
19/01:00pm 23.4 - - - - SE 28 32 15 17 1016.2 1015.9 -
19/12:30pm 23.5 - - - - ESE 26 32 14 17 1016.6 - -
19/12:00pm 23.3 - - - - SE 28 32 15 17 1017.2 1016.9 -
19/11:30am 23.8 - - - - SE 26 30 14 16 1017.5 - -
19/11:00am 23.6 - - - - ESE 26 30 14 16 1018.0 1017.9 -
19/10:30am 23.5 - - - - ESE 26 32 14 17 1018.2 - -
19/10:00am 23.4 - - - - ESE 28 32 15 17 1018.6 1018.5 -
19/09:30am 23.3 - - - - SE 26 30 14 16 1018.8 - -
19/09:00am 23.3 - - - - ESE 26 30 14 16 1018.8 1018.7 -
19/08:30am 23.3 - - - - ESE 28 32 15 17 1018.5 - -
19/08:00am 23.1 - - - - SE 26 32 14 17 1018.2 1018.2 -
19/07:30am 23.3 - - - - SE 26 33 14 18 1018.1 - -
19/07:00am 23.2 - - - - SE 26 32 14 17 1017.7 1017.7 -
19/06:30am 23.1 - - - - SE 26 30 14 16 1017.4 - -
19/06:00am 23.1 - - - - ESE 26 30 14 16 1017.1 1017.0 -
19/05:30am 23.2 - - - - SE 24 28 13 15 1017.1 - -
19/05:00am 23.1 - - - - SE 22 32 12 17 1016.8 1016.8 -
19/04:30am 23.0 - - - - SE 24 30 13 16 1016.5 - -
19/04:00am 23.1 - - - - SE 24 28 13 15 1016.2 1016.1 -
19/03:30am 23.1 - - - - SE 24 28 13 15 1016.2 - -
19/03:00am 23.0 - - - - SE 26 28 14 15 1016.4 1016.3 -
19/02:30am 23.3 - - - - ESE 24 30 13 16 1016.5 - -
19/02:00am 23.0 - - - - ESE 24 30 13 16 1016.7 1016.5 -
19/01:30am 23.2 - - - - ESE 24 28 13 15 1017.0 - -
19/01:00am 23.4 - - - - ESE 24 28 13 15 1017.1 1016.9 -
19/12:30am 23.3 - - - - ESE 24 28 13 15 1017.3 - -
19/12:00am 23.3 - - - - SE 24 28 13 15 1017.5 1017.4 -
 
Date/Time
EST
Temp
°C
App
Temp
°C
Dew
Point
Rel
Hum
%
Delta-T
°C
Wind Press
QNH
hPa
Press
MSL
hPa
Rain
since 9 am
mm
Dir
 
Spd
km/h
Gust
km/h
Spd
kts
Gust
kts
18/11:30pm 23.5 - - - - SE 26 30 14 16 1017.7 - -
18/11:00pm 23.6 - - - - SE 24 28 13 15 1017.9 1017.8 -
18/10:30pm 23.7 - - - - SE 22 26 12 14 1018.0 - -
18/10:00pm 23.7 - - - - SE 22 26 12 14 1018.1 1018.0 -
18/09:30pm 23.7 - - - - SE 22 28 12 15 1018.1 - -
18/09:00pm 23.7 - - - - SE 22 28 12 15 1018.0 1017.9 -
18/08:30pm 23.7 - - - - SE 20 26 11 14 1017.9 - -
18/08:00pm 23.8 - - - - SSE 24 28 13 15 1017.6 1017.6 -
18/07:30pm 23.7 - - - - SSE 22 26 12 14 1017.3 - -
18/07:00pm 23.7 - - - - S 22 26 12 14 1017.0 1017.0 -
18/06:30pm 23.7 - - - - S 22 26 12 14 1016.6 - -
18/06:00pm 23.8 - - - - S 20 24 11 13 1016.3 1016.2 -

Other Formats:

Comma delimited format used in spreadsheet applications
http://www.bom.gov.au/fwo/IDQ60801/IDQ60801.94298.axf

JavaScript Object Notation format (JSON) in row-major order
http://www.bom.gov.au/fwo/IDQ60801/IDQ60801.94298.json